sensor_id;sensor_type;location;lat;lon;timestamp;P1;durP1;ratioP1;P2;durP2;ratioP2
18623;SDS011;9441;51.420;7.036;2023-06-10T00:00:52;13.23;;;8.65;;
18623;SDS011;9441;51.420;7.036;2023-06-10T00:01:53;9.73;;;7.63;;
18623;SDS011;9441;51.420;7.036;2023-06-10T00:02:58;13.80;;;8.25;;
18623;SDS011;9441;51.420;7.036;2023-06-10T00:03:59;11.10;;;9.00;;
18623;SDS011;9441;51.420;7.036;2023-06-10T00:05:02;11.73;;;8.52;;
18623;SDS011;9441;51.420;7.036;2023-06-10T00:06:04;8.98;;;7.95;;
18623;SDS011;9441;51.420;7.036;2023-06-10T00:07:06;13.30;;;8.63;;
18623;SDS011;9441;51.420;7.036;2023-06-10T00:08:10;9.73;;;8.40;;
18623;SDS011;9441;51.420;7.036;2023-06-10T00:09:16;11.73;;;8.00;;
18623;SDS011;9441;51.420;7.036;2023-06-10T00:10:18;13.60;;;8.38;;
18623;SDS011;9441;51.420;7.036;2023-06-10T00:11:20;15.23;;;8.82;;
18623;SDS011;9441;51.420;7.036;2023-06-10T00:12:22;11.80;;;8.52;;
18623;SDS011;9441;51.420;7.036;2023-06-10T00:13:24;11.32;;;8.60;;
18623;SDS011;9441;51.420;7.036;2023-06-10T00:14:25;13.98;;;8.57;;
18623;SDS011;9441;51.420;7.036;2023-06-10T00:15:28;12.48;;;8.43;;
18623;SDS011;9441;51.420;7.036;2023-06-10T00:16:29;11.50;;;8.43;;
18623;SDS011;9441;51.420;7.036;2023-06-10T00:17:32;12.00;;;8.80;;
18623;SDS011;9441;51.420;7.036;2023-06-10T00:18:34;9.70;;;8.23;;
18623;SDS011;9441;51.420;7.036;2023-06-10T00:19:37;16.52;;;8.38;;
18623;SDS011;9441;51.420;7.036;2023-06-10T00:20:41;10.82;;;8.35;;
18623;SDS011;9441;51.420;7.036;2023-06-10T00:21:44;9.73;;;8.32;;
18623;SDS011;9441;51.420;7.036;2023-06-10T00:22:45;12.07;;;8.30;;
18623;SDS011;9441;51.420;7.036;2023-06-10T00:23:50;15.68;;;8.60;;
18623;SDS011;9441;51.420;7.036;2023-06-10T00:24:51;16.55;;;8.77;;
18623;SDS011;9441;51.420;7.036;2023-06-10T00:25:53;10.90;;;8.18;;
18623;SDS011;9441;51.420;7.036;2023-06-10T00:26:55;11.57;;;8.57;;
18623;SDS011;9441;51.420;7.036;2023-06-10T00:27:57;13.32;;;8.48;;
18623;SDS011;9441;51.420;7.036;2023-06-10T00:28:58;10.63;;;8.68;;
18623;SDS011;9441;51.420;7.036;2023-06-10T00:30:02;14.60;;;8.30;;
18623;SDS011;9441;51.420;7.036;2023-06-10T00:31:05;10.98;;;8.50;;
18623;SDS011;9441;51.420;7.036;2023-06-10T00:32:08;11.95;;;8.88;;
18623;SDS011;9441;51.420;7.036;2023-06-10T00:33:09;11.57;;;9.20;;
18623;SDS011;9441;51.420;7.036;2023-06-10T00:34:11;12.70;;;8.38;;
18623;SDS011;9441;51.420;7.036;2023-06-10T00:35:13;12.02;;;8.63;;
18623;SDS011;9441;51.420;7.036;2023-06-10T00:36:15;9.45;;;7.75;;
18623;SDS011;9441;51.420;7.036;2023-06-10T00:37:16;9.82;;;8.20;;
18623;SDS011;9441;51.420;7.036;2023-06-10T00:38:19;11.23;;;8.48;;
18623;SDS011;9441;51.420;7.036;2023-06-10T00:39:22;8.77;;;7.88;;
18623;SDS011;9441;51.420;7.036;2023-06-10T00:40:24;11.82;;;8.70;;
18623;SDS011;9441;51.420;7.036;2023-06-10T00:41:25;13.48;;;8.95;;
18623;SDS011;9441;51.420;7.036;2023-06-10T00:42:28;12.40;;;8.27;;
18623;SDS011;9441;51.420;7.036;2023-06-10T00:43:29;17.08;;;8.93;;
18623;SDS011;9441;51.420;7.036;2023-06-10T00:44:32;13.32;;;8.02;;
18623;SDS011;9441;51.420;7.036;2023-06-10T00:45:33;10.88;;;9.02;;
18623;SDS011;9441;51.420;7.036;2023-06-10T00:46:35;12.35;;;8.43;;
18623;SDS011;9441;51.420;7.036;2023-06-10T00:47:37;11.55;;;8.63;;
18623;SDS011;9441;51.420;7.036;2023-06-10T00:48:40;12.02;;;9.48;;
18623;SDS011;9441;51.420;7.036;2023-06-10T00:49:43;13.25;;;9.05;;
18623;SDS011;9441;51.420;7.036;2023-06-10T00:50:46;22.88;;;9.05;;
18623;SDS011;9441;51.420;7.036;2023-06-10T00:51:47;11.48;;;8.52;;
18623;SDS011;9441;51.420;7.036;2023-06-10T00:52:51;14.18;;;9.10;;
18623;SDS011;9441;51.420;7.036;2023-06-10T00:53:52;10.77;;;8.98;;
18623;SDS011;9441;51.420;7.036;2023-06-10T00:54:56;11.40;;;8.73;;
18623;SDS011;9441;51.420;7.036;2023-06-10T00:55:59;15.68;;;8.98;;
18623;SDS011;9441;51.420;7.036;2023-06-10T00:57:03;11.25;;;9.23;;
18623;SDS011;9441;51.420;7.036;2023-06-10T00:58:06;12.30;;;8.73;;
18623;SDS011;9441;51.420;7.036;2023-06-10T00:59:09;11.40;;;9.00;;
18623;SDS011;9441;51.420;7.036;2023-06-10T01:00:11;12.02;;;9.40;;
18623;SDS011;9441;51.420;7.036;2023-06-10T01:01:14;12.50;;;8.75;;
18623;SDS011;9441;51.420;7.036;2023-06-10T01:02:15;11.20;;;8.60;;
18623;SDS011;9441;51.420;7.036;2023-06-10T01:03:17;10.93;;;8.70;;
18623;SDS011;9441;51.420;7.036;2023-06-10T01:04:19;10.75;;;8.90;;
18623;SDS011;9441;51.420;7.036;2023-06-10T01:05:23;13.13;;;9.27;;
18623;SDS011;9441;51.420;7.036;2023-06-10T01:06:27;13.50;;;8.52;;
18623;SDS011;9441;51.420;7.036;2023-06-10T01:07:34;11.55;;;8.90;;
18623;SDS011;9441;51.420;7.036;2023-06-10T01:08:39;12.18;;;9.10;;
18623;SDS011;9441;51.420;7.036;2023-06-10T01:09:45;12.50;;;8.55;;
18623;SDS011;9441;51.420;7.036;2023-06-10T01:10:51;12.85;;;8.98;;
18623;SDS011;9441;51.420;7.036;2023-06-10T01:11:57;11.95;;;8.93;;
18623;SDS011;9441;51.420;7.036;2023-06-10T01:13:03;11.73;;;9.25;;
18623;SDS011;9441;51.420;7.036;2023-06-10T01:14:09;10.05;;;8.70;;
18623;SDS011;9441;51.420;7.036;2023-06-10T01:15:10;12.23;;;9.63;;
18623;SDS011;9441;51.420;7.036;2023-06-10T01:16:13;10.32;;;8.70;;
18623;SDS011;9441;51.420;7.036;2023-06-10T01:17:14;13.93;;;9.35;;
18623;SDS011;9441;51.420;7.036;2023-06-10T01:18:18;11.38;;;9.40;;
18623;SDS011;9441;51.420;7.036;2023-06-10T01:19:19;12.73;;;8.70;;
18623;SDS011;9441;51.420;7.036;2023-06-10T01:20:24;9.80;;;8.80;;
18623;SDS011;9441;51.420;7.036;2023-06-10T01:21:28;13.60;;;9.68;;
18623;SDS011;9441;51.420;7.036;2023-06-10T01:22:31;13.07;;;9.15;;
18623;SDS011;9441;51.420;7.036;2023-06-10T01:23:32;13.98;;;8.90;;
18623;SDS011;9441;51.420;7.036;2023-06-10T01:24:35;11.55;;;9.20;;
18623;SDS011;9441;51.420;7.036;2023-06-10T01:25:37;16.58;;;9.23;;
18623;SDS011;9441;51.420;7.036;2023-06-10T01:26:39;12.10;;;9.05;;
18623;SDS011;9441;51.420;7.036;2023-06-10T01:27:42;15.95;;;9.30;;
18623;SDS011;9441;51.420;7.036;2023-06-10T01:28:48;15.15;;;9.45;;
18623;SDS011;9441;51.420;7.036;2023-06-10T01:29:54;13.52;;;8.98;;
18623;SDS011;9441;51.420;7.036;2023-06-10T01:31:00;15.52;;;9.48;;
18623;SDS011;9441;51.420;7.036;2023-06-10T01:32:09;15.10;;;9.07;;
18623;SDS011;9441;51.420;7.036;2023-06-10T01:33:16;11.13;;;9.32;;
18623;SDS011;9441;51.420;7.036;2023-06-10T01:34:20;13.27;;;9.75;;
18623;SDS011;9441;51.420;7.036;2023-06-10T01:35:25;11.63;;;9.13;;
18623;SDS011;9441;51.420;7.036;2023-06-10T01:36:28;15.88;;;9.27;;
18623;SDS011;9441;51.420;7.036;2023-06-10T01:37:31;13.85;;;9.48;;
18623;SDS011;9441;51.420;7.036;2023-06-10T01:38:33;13.63;;;9.77;;
18623;SDS011;9441;51.420;7.036;2023-06-10T01:39:37;13.38;;;9.10;;
18623;SDS011;9441;51.420;7.036;2023-06-10T01:40:40;11.60;;;9.65;;
18623;SDS011;9441;51.420;7.036;2023-06-10T01:41:43;15.98;;;10.20;;
18623;SDS011;9441;51.420;7.036;2023-06-10T01:42:44;13.82;;;10.30;;
18623;SDS011;9441;51.420;7.036;2023-06-10T01:43:47;15.10;;;9.57;;
18623;SDS011;9441;51.420;7.036;2023-06-10T01:44:48;14.60;;;9.20;;
18623;SDS011;9441;51.420;7.036;2023-06-10T01:45:51;13.02;;;9.73;;
18623;SDS011;9441;51.420;7.036;2023-06-10T01:46:52;17.95;;;10.07;;
18623;SDS011;9441;51.420;7.036;2023-06-10T01:47:54;17.55;;;9.95;;
18623;SDS011;9441;51.420;7.036;2023-06-10T01:48:56;13.73;;;9.60;;
18623;SDS011;9441;51.420;7.036;2023-06-10T01:49:58;19.10;;;9.57;;
18623;SDS011;9441;51.420;7.036;2023-06-10T01:51:00;13.38;;;9.65;;
18623;SDS011;9441;51.420;7.036;2023-06-10T01:52:04;11.73;;;9.43;;
18623;SDS011;9441;51.420;7.036;2023-06-10T01:53:07;13.20;;;10.75;;
18623;SDS011;9441;51.420;7.036;2023-06-10T01:54:09;12.50;;;9.93;;
18623;SDS011;9441;51.420;7.036;2023-06-10T01:55:10;17.30;;;9.80;;
18623;SDS011;9441;51.420;7.036;2023-06-10T01:56:14;13.23;;;9.90;;
18623;SDS011;9441;51.420;7.036;2023-06-10T01:57:19;14.00;;;10.00;;
18623;SDS011;9441;51.420;7.036;2023-06-10T01:58:21;14.93;;;9.80;;
18623;SDS011;9441;51.420;7.036;2023-06-10T01:59:23;15.93;;;10.10;;
18623;SDS011;9441;51.420;7.036;2023-06-10T02:00:26;12.73;;;10.27;;
18623;SDS011;9441;51.420;7.036;2023-06-10T02:01:28;11.60;;;10.02;;
18623;SDS011;9441;51.420;7.036;2023-06-10T02:02:30;13.05;;;10.05;;
18623;SDS011;9441;51.420;7.036;2023-06-10T02:03:33;14.10;;;10.02;;
18623;SDS011;9441;51.420;7.036;2023-06-10T02:04:36;12.80;;;9.98;;
18623;SDS011;9441;51.420;7.036;2023-06-10T02:05:38;15.20;;;9.63;;
18623;SDS011;9441;51.420;7.036;2023-06-10T02:06:40;14.68;;;10.45;;
18623;SDS011;9441;51.420;7.036;2023-06-10T02:07:44;12.55;;;9.57;;
18623;SDS011;9441;51.420;7.036;2023-06-10T02:08:46;12.07;;;9.75;;
18623;SDS011;9441;51.420;7.036;2023-06-10T02:09:47;11.95;;;9.48;;
18623;SDS011;9441;51.420;7.036;2023-06-10T02:10:50;12.95;;;9.75;;
18623;SDS011;9441;51.420;7.036;2023-06-10T02:11:51;14.63;;;9.80;;
18623;SDS011;9441;51.420;7.036;2023-06-10T02:12:54;13.25;;;10.55;;
18623;SDS011;9441;51.420;7.036;2023-06-10T02:13:55;12.10;;;9.88;;
18623;SDS011;9441;51.420;7.036;2023-06-10T02:14:58;13.57;;;9.90;;
18623;SDS011;9441;51.420;7.036;2023-06-10T02:15:59;13.52;;;9.50;;
18623;SDS011;9441;51.420;7.036;2023-06-10T02:17:03;14.98;;;10.57;;
18623;SDS011;9441;51.420;7.036;2023-06-10T02:18:05;14.02;;;10.32;;
18623;SDS011;9441;51.420;7.036;2023-06-10T02:19:07;14.13;;;10.32;;
18623;SDS011;9441;51.420;7.036;2023-06-10T02:20:09;12.30;;;10.43;;
18623;SDS011;9441;51.420;7.036;2023-06-10T02:21:12;13.70;;;10.18;;
18623;SDS011;9441;51.420;7.036;2023-06-10T02:22:13;18.83;;;10.73;;
18623;SDS011;9441;51.420;7.036;2023-06-10T02:23:17;13.77;;;10.05;;
18623;SDS011;9441;51.420;7.036;2023-06-10T02:24:18;12.32;;;9.98;;
18623;SDS011;9441;51.420;7.036;2023-06-10T02:25:20;17.35;;;10.35;;
18623;SDS011;9441;51.420;7.036;2023-06-10T02:26:22;11.90;;;10.10;;
18623;SDS011;9441;51.420;7.036;2023-06-10T02:27:26;19.17;;;10.68;;
18623;SDS011;9441;51.420;7.036;2023-06-10T02:28:28;13.15;;;10.23;;
18623;SDS011;9441;51.420;7.036;2023-06-10T02:29:33;14.48;;;10.02;;
18623;SDS011;9441;51.420;7.036;2023-06-10T02:30:34;13.38;;;10.20;;
18623;SDS011;9441;51.420;7.036;2023-06-10T02:31:38;11.95;;;10.13;;
18623;SDS011;9441;51.420;7.036;2023-06-10T02:32:39;14.52;;;10.15;;
18623;SDS011;9441;51.420;7.036;2023-06-10T02:33:42;17.73;;;10.60;;
18623;SDS011;9441;51.420;7.036;2023-06-10T02:34:44;11.63;;;10.40;;
18623;SDS011;9441;51.420;7.036;2023-06-10T02:35:48;11.32;;;10.13;;
18623;SDS011;9441;51.420;7.036;2023-06-10T02:36:49;15.18;;;10.32;;
18623;SDS011;9441;51.420;7.036;2023-06-10T02:37:56;11.80;;;10.07;;
18623;SDS011;9441;51.420;7.036;2023-06-10T02:38:59;18.35;;;10.00;;
18623;SDS011;9441;51.420;7.036;2023-06-10T02:40:01;14.55;;;10.82;;
18623;SDS011;9441;51.420;7.036;2023-06-10T02:41:03;16.25;;;10.75;;
18623;SDS011;9441;51.420;7.036;2023-06-10T02:42:06;13.70;;;10.98;;
18623;SDS011;9441;51.420;7.036;2023-06-10T02:43:08;15.73;;;10.52;;
18623;SDS011;9441;51.420;7.036;2023-06-10T02:44:11;15.73;;;10.60;;
18623;SDS011;9441;51.420;7.036;2023-06-10T02:45:13;13.63;;;10.27;;
18623;SDS011;9441;51.420;7.036;2023-06-10T02:46:17;14.05;;;10.85;;
18623;SDS011;9441;51.420;7.036;2023-06-10T02:47:19;14.07;;;10.52;;
18623;SDS011;9441;51.420;7.036;2023-06-10T02:48:23;15.75;;;10.30;;
18623;SDS011;9441;51.420;7.036;2023-06-10T02:49:25;13.88;;;10.57;;
18623;SDS011;9441;51.420;7.036;2023-06-10T02:50:31;15.73;;;10.93;;
18623;SDS011;9441;51.420;7.036;2023-06-10T02:51:43;14.43;;;10.75;;
18623;SDS011;9441;51.420;7.036;2023-06-10T02:52:46;16.10;;;10.40;;
18623;SDS011;9441;51.420;7.036;2023-06-10T02:53:48;16.58;;;10.77;;
18623;SDS011;9441;51.420;7.036;2023-06-10T02:54:51;14.57;;;10.32;;
18623;SDS011;9441;51.420;7.036;2023-06-10T02:55:53;14.23;;;10.63;;
18623;SDS011;9441;51.420;7.036;2023-06-10T02:56:55;15.50;;;10.63;;
18623;SDS011;9441;51.420;7.036;2023-06-10T02:57:59;14.77;;;10.73;;
18623;SDS011;9441;51.420;7.036;2023-06-10T02:59:03;14.63;;;11.05;;
18623;SDS011;9441;51.420;7.036;2023-06-10T03:00:07;11.95;;;10.02;;
18623;SDS011;9441;51.420;7.036;2023-06-10T03:01:12;13.27;;;10.40;;
18623;SDS011;9441;51.420;7.036;2023-06-10T03:02:31;16.63;;;10.85;;
18623;SDS011;9441;51.420;7.036;2023-06-10T03:03:37;15.18;;;10.93;;
18623;SDS011;9441;51.420;7.036;2023-06-10T03:04:44;15.30;;;10.90;;
18623;SDS011;9441;51.420;7.036;2023-06-10T03:05:50;15.48;;;11.27;;
18623;SDS011;9441;51.420;7.036;2023-06-10T03:06:54;15.23;;;11.20;;
18623;SDS011;9441;51.420;7.036;2023-06-10T03:08:02;13.98;;;10.88;;
18623;SDS011;9441;51.420;7.036;2023-06-10T03:09:05;12.70;;;11.10;;
18623;SDS011;9441;51.420;7.036;2023-06-10T03:10:10;13.07;;;10.55;;
18623;SDS011;9441;51.420;7.036;2023-06-10T03:11:13;16.75;;;11.57;;
18623;SDS011;9441;51.420;7.036;2023-06-10T03:12:16;16.13;;;11.02;;
18623;SDS011;9441;51.420;7.036;2023-06-10T03:13:21;15.05;;;10.98;;
18623;SDS011;9441;51.420;7.036;2023-06-10T03:14:24;14.30;;;10.80;;
18623;SDS011;9441;51.420;7.036;2023-06-10T03:15:26;14.82;;;11.10;;
18623;SDS011;9441;51.420;7.036;2023-06-10T03:16:34;15.55;;;11.48;;
18623;SDS011;9441;51.420;7.036;2023-06-10T03:17:35;15.52;;;11.02;;
18623;SDS011;9441;51.420;7.036;2023-06-10T03:18:38;13.57;;;10.70;;
18623;SDS011;9441;51.420;7.036;2023-06-10T03:19:40;15.63;;;11.15;;
18623;SDS011;9441;51.420;7.036;2023-06-10T03:20:42;13.40;;;10.85;;
18623;SDS011;9441;51.420;7.036;2023-06-10T03:21:44;15.10;;;10.80;;
18623;SDS011;9441;51.420;7.036;2023-06-10T03:22:49;14.55;;;10.85;;
18623;SDS011;9441;51.420;7.036;2023-06-10T03:23:50;13.95;;;11.60;;
18623;SDS011;9441;51.420;7.036;2023-06-10T03:24:52;14.68;;;10.95;;
18623;SDS011;9441;51.420;7.036;2023-06-10T03:25:56;18.73;;;11.57;;
18623;SDS011;9441;51.420;7.036;2023-06-10T03:26:59;17.08;;;11.27;;
18623;SDS011;9441;51.420;7.036;2023-06-10T03:28:03;15.23;;;11.52;;
18623;SDS011;9441;51.420;7.036;2023-06-10T03:29:06;14.52;;;11.20;;
18623;SDS011;9441;51.420;7.036;2023-06-10T03:30:08;15.20;;;11.63;;
18623;SDS011;9441;51.420;7.036;2023-06-10T03:31:11;13.93;;;11.15;;
18623;SDS011;9441;51.420;7.036;2023-06-10T03:32:13;14.38;;;10.98;;
18623;SDS011;9441;51.420;7.036;2023-06-10T03:33:16;17.73;;;11.48;;
18623;SDS011;9441;51.420;7.036;2023-06-10T03:34:18;17.15;;;11.27;;
18623;SDS011;9441;51.420;7.036;2023-06-10T03:35:22;15.70;;;11.50;;
18623;SDS011;9441;51.420;7.036;2023-06-10T03:36:23;18.27;;;11.40;;
18623;SDS011;9441;51.420;7.036;2023-06-10T03:37:30;21.48;;;11.50;;
18623;SDS011;9441;51.420;7.036;2023-06-10T03:38:31;16.92;;;11.43;;
18623;SDS011;9441;51.420;7.036;2023-06-10T03:39:33;13.32;;;11.23;;
18623;SDS011;9441;51.420;7.036;2023-06-10T03:40:36;14.68;;;11.50;;
18623;SDS011;9441;51.420;7.036;2023-06-10T03:41:40;17.30;;;11.60;;
18623;SDS011;9441;51.420;7.036;2023-06-10T03:42:43;16.20;;;11.50;;
18623;SDS011;9441;51.420;7.036;2023-06-10T03:43:48;14.00;;;11.68;;
18623;SDS011;9441;51.420;7.036;2023-06-10T03:44:50;23.02;;;11.65;;
18623;SDS011;9441;51.420;7.036;2023-06-10T03:45:52;15.57;;;11.27;;
18623;SDS011;9441;51.420;7.036;2023-06-10T03:46:54;13.88;;;11.55;;
18623;SDS011;9441;51.420;7.036;2023-06-10T03:47:56;18.05;;;12.07;;
18623;SDS011;9441;51.420;7.036;2023-06-10T03:49:02;14.48;;;11.73;;
18623;SDS011;9441;51.420;7.036;2023-06-10T03:50:05;15.32;;;11.48;;
18623;SDS011;9441;51.420;7.036;2023-06-10T03:51:06;13.85;;;11.32;;
18623;SDS011;9441;51.420;7.036;2023-06-10T03:52:09;17.40;;;12.65;;
18623;SDS011;9441;51.420;7.036;2023-06-10T03:53:10;16.25;;;11.98;;
18623;SDS011;9441;51.420;7.036;2023-06-10T03:54:15;16.90;;;11.50;;
18623;SDS011;9441;51.420;7.036;2023-06-10T03:55:16;16.67;;;11.57;;
18623;SDS011;9441;51.420;7.036;2023-06-10T03:56:23;18.15;;;11.65;;
18623;SDS011;9441;51.420;7.036;2023-06-10T03:57:26;15.00;;;11.20;;
18623;SDS011;9441;51.420;7.036;2023-06-10T03:58:28;15.20;;;11.95;;
18623;SDS011;9441;51.420;7.036;2023-06-10T03:59:30;16.30;;;11.45;;
18623;SDS011;9441;51.420;7.036;2023-06-10T04:00:32;14.52;;;11.45;;
18623;SDS011;9441;51.420;7.036;2023-06-10T04:01:41;13.18;;;11.23;;
18623;SDS011;9441;51.420;7.036;2023-06-10T04:02:44;18.30;;;11.98;;
18623;SDS011;9441;51.420;7.036;2023-06-10T04:03:51;14.07;;;11.68;;
18623;SDS011;9441;51.420;7.036;2023-06-10T04:04:54;16.00;;;12.45;;
18623;SDS011;9441;51.420;7.036;2023-06-10T04:05:55;18.70;;;12.23;;
18623;SDS011;9441;51.420;7.036;2023-06-10T04:06:59;20.90;;;13.52;;
18623;SDS011;9441;51.420;7.036;2023-06-10T04:08:01;16.85;;;13.15;;
18623;SDS011;9441;51.420;7.036;2023-06-10T04:09:03;17.88;;;12.88;;
18623;SDS011;9441;51.420;7.036;2023-06-10T04:10:05;16.23;;;13.10;;
18623;SDS011;9441;51.420;7.036;2023-06-10T04:11:10;16.05;;;12.30;;
18623;SDS011;9441;51.420;7.036;2023-06-10T04:12:11;18.48;;;12.50;;
18623;SDS011;9441;51.420;7.036;2023-06-10T04:13:16;15.95;;;11.45;;
18623;SDS011;9441;51.420;7.036;2023-06-10T04:14:30;17.95;;;12.05;;
18623;SDS011;9441;51.420;7.036;2023-06-10T04:15:32;19.70;;;12.48;;
18623;SDS011;9441;51.420;7.036;2023-06-10T04:16:40;15.88;;;12.70;;
18623;SDS011;9441;51.420;7.036;2023-06-10T04:17:43;18.08;;;12.45;;
18623;SDS011;9441;51.420;7.036;2023-06-10T04:18:46;14.20;;;12.15;;
18623;SDS011;9441;51.420;7.036;2023-06-10T04:19:48;18.73;;;13.70;;
18623;SDS011;9441;51.420;7.036;2023-06-10T04:20:51;18.38;;;12.45;;
18623;SDS011;9441;51.420;7.036;2023-06-10T04:21:53;20.35;;;13.20;;
18623;SDS011;9441;51.420;7.036;2023-06-10T04:22:55;16.33;;;12.40;;
18623;SDS011;9441;51.420;7.036;2023-06-10T04:23:58;18.48;;;12.20;;
18623;SDS011;9441;51.420;7.036;2023-06-10T04:24:59;16.25;;;12.45;;
18623;SDS011;9441;51.420;7.036;2023-06-10T04:26:02;18.77;;;12.60;;
18623;SDS011;9441;51.420;7.036;2023-06-10T04:27:04;17.95;;;12.20;;
18623;SDS011;9441;51.420;7.036;2023-06-10T04:28:07;16.42;;;12.45;;
18623;SDS011;9441;51.420;7.036;2023-06-10T04:29:11;15.82;;;12.07;;
18623;SDS011;9441;51.420;7.036;2023-06-10T04:30:15;16.80;;;12.30;;
18623;SDS011;9441;51.420;7.036;2023-06-10T04:31:17;15.60;;;12.13;;
18623;SDS011;9441;51.420;7.036;2023-06-10T04:32:20;16.13;;;12.18;;
18623;SDS011;9441;51.420;7.036;2023-06-10T04:33:22;18.30;;;12.40;;
18623;SDS011;9441;51.420;7.036;2023-06-10T04:34:24;17.88;;;12.35;;
18623;SDS011;9441;51.420;7.036;2023-06-10T04:35:27;15.88;;;12.15;;
18623;SDS011;9441;51.420;7.036;2023-06-10T04:36:32;17.25;;;13.07;;
18623;SDS011;9441;51.420;7.036;2023-06-10T04:37:34;18.63;;;12.50;;
18623;SDS011;9441;51.420;7.036;2023-06-10T04:38:36;15.23;;;12.38;;
18623;SDS011;9441;51.420;7.036;2023-06-10T04:39:37;16.35;;;12.88;;
18623;SDS011;9441;51.420;7.036;2023-06-10T04:40:41;20.83;;;12.75;;
18623;SDS011;9441;51.420;7.036;2023-06-10T04:41:44;15.23;;;12.23;;
18623;SDS011;9441;51.420;7.036;2023-06-10T04:42:47;20.98;;;12.93;;
18623;SDS011;9441;51.420;7.036;2023-06-10T04:43:48;18.23;;;12.23;;
18623;SDS011;9441;51.420;7.036;2023-06-10T04:44:53;17.02;;;12.60;;
18623;SDS011;9441;51.420;7.036;2023-06-10T04:45:55;15.80;;;12.35;;
18623;SDS011;9441;51.420;7.036;2023-06-10T04:46:57;16.83;;;12.20;;
18623;SDS011;9441;51.420;7.036;2023-06-10T04:47:59;15.07;;;12.50;;
18623;SDS011;9441;51.420;7.036;2023-06-10T04:49:02;18.42;;;12.85;;
18623;SDS011;9441;51.420;7.036;2023-06-10T04:50:06;17.52;;;12.05;;
18623;SDS011;9441;51.420;7.036;2023-06-10T04:51:10;18.48;;;12.75;;
18623;SDS011;9441;51.420;7.036;2023-06-10T04:52:13;15.25;;;12.20;;
18623;SDS011;9441;51.420;7.036;2023-06-10T04:53:27;16.50;;;12.32;;
18623;SDS011;9441;51.420;7.036;2023-06-10T04:54:30;14.35;;;12.10;;
18623;SDS011;9441;51.420;7.036;2023-06-10T04:55:46;17.05;;;12.32;;
18623;SDS011;9441;51.420;7.036;2023-06-10T04:56:49;16.52;;;12.68;;
18623;SDS011;9441;51.420;7.036;2023-06-10T04:57:50;17.50;;;12.70;;
18623;SDS011;9441;51.420;7.036;2023-06-10T04:58:52;17.50;;;13.00;;
18623;SDS011;9441;51.420;7.036;2023-06-10T04:59:55;17.70;;;11.82;;
18623;SDS011;9441;51.420;7.036;2023-06-10T05:00:57;17.63;;;12.77;;
18623;SDS011;9441;51.420;7.036;2023-06-10T05:01:58;18.50;;;12.95;;
18623;SDS011;9441;51.420;7.036;2023-06-10T05:03:01;17.27;;;13.27;;
18623;SDS011;9441;51.420;7.036;2023-06-10T05:04:03;17.55;;;13.52;;
18623;SDS011;9441;51.420;7.036;2023-06-10T05:05:05;18.35;;;13.23;;
18623;SDS011;9441;51.420;7.036;2023-06-10T05:06:07;17.45;;;13.05;;
18623;SDS011;9441;51.420;7.036;2023-06-10T05:07:11;17.50;;;12.18;;
18623;SDS011;9441;51.420;7.036;2023-06-10T05:08:13;19.88;;;12.75;;
18623;SDS011;9441;51.420;7.036;2023-06-10T05:09:15;19.35;;;13.02;;
18623;SDS011;9441;51.420;7.036;2023-06-10T05:10:20;19.63;;;14.38;;
18623;SDS011;9441;51.420;7.036;2023-06-10T05:11:23;19.48;;;13.40;;
18623;SDS011;9441;51.420;7.036;2023-06-10T05:12:24;20.02;;;13.90;;
18623;SDS011;9441;51.420;7.036;2023-06-10T05:13:26;16.85;;;13.50;;
18623;SDS011;9441;51.420;7.036;2023-06-10T05:14:28;18.35;;;13.27;;
18623;SDS011;9441;51.420;7.036;2023-06-10T05:15:33;20.13;;;12.77;;
18623;SDS011;9441;51.420;7.036;2023-06-10T05:16:35;17.67;;;13.48;;
18623;SDS011;9441;51.420;7.036;2023-06-10T05:17:38;16.10;;;13.07;;
18623;SDS011;9441;51.420;7.036;2023-06-10T05:18:46;16.88;;;12.95;;
18623;SDS011;9441;51.420;7.036;2023-06-10T05:19:49;18.13;;;13.60;;
18623;SDS011;9441;51.420;7.036;2023-06-10T05:20:51;20.20;;;14.30;;
18623;SDS011;9441;51.420;7.036;2023-06-10T05:21:54;18.17;;;14.00;;
18623;SDS011;9441;51.420;7.036;2023-06-10T05:22:55;16.73;;;13.70;;
18623;SDS011;9441;51.420;7.036;2023-06-10T05:23:57;16.95;;;14.07;;
18623;SDS011;9441;51.420;7.036;2023-06-10T05:24:59;15.55;;;13.15;;
18623;SDS011;9441;51.420;7.036;2023-06-10T05:26:01;20.98;;;13.93;;
18623;SDS011;9441;51.420;7.036;2023-06-10T05:27:03;17.95;;;13.68;;
18623;SDS011;9441;51.420;7.036;2023-06-10T05:28:06;15.57;;;13.20;;
18623;SDS011;9441;51.420;7.036;2023-06-10T05:29:11;18.30;;;13.52;;
18623;SDS011;9441;51.420;7.036;2023-06-10T05:30:18;17.20;;;13.98;;
18623;SDS011;9441;51.420;7.036;2023-06-10T05:31:20;28.38;;;14.30;;
18623;SDS011;9441;51.420;7.036;2023-06-10T05:32:24;19.05;;;13.30;;
18623;SDS011;9441;51.420;7.036;2023-06-10T05:33:25;19.15;;;13.88;;
18623;SDS011;9441;51.420;7.036;2023-06-10T05:34:28;17.70;;;13.88;;
18623;SDS011;9441;51.420;7.036;2023-06-10T05:35:29;17.08;;;13.30;;
18623;SDS011;9441;51.420;7.036;2023-06-10T05:36:31;19.83;;;13.57;;
18623;SDS011;9441;51.420;7.036;2023-06-10T05:37:33;16.38;;;13.05;;
18623;SDS011;9441;51.420;7.036;2023-06-10T05:38:37;18.55;;;12.60;;
18623;SDS011;9441;51.420;7.036;2023-06-10T05:39:38;17.73;;;13.50;;
18623;SDS011;9441;51.420;7.036;2023-06-10T05:40:42;18.88;;;13.32;;
18623;SDS011;9441;51.420;7.036;2023-06-10T05:41:48;18.60;;;13.63;;
18623;SDS011;9441;51.420;7.036;2023-06-10T05:42:50;17.80;;;12.02;;
18623;SDS011;9441;51.420;7.036;2023-06-10T05:43:52;18.45;;;13.05;;
18623;SDS011;9441;51.420;7.036;2023-06-10T05:44:54;15.88;;;12.85;;
18623;SDS011;9441;51.420;7.036;2023-06-10T05:45:57;19.35;;;13.23;;
18623;SDS011;9441;51.420;7.036;2023-06-10T05:47:00;15.00;;;12.85;;
18623;SDS011;9441;51.420;7.036;2023-06-10T05:48:02;15.63;;;12.55;;
18623;SDS011;9441;51.420;7.036;2023-06-10T05:49:04;17.92;;;13.30;;
18623;SDS011;9441;51.420;7.036;2023-06-10T05:50:10;17.02;;;12.88;;
18623;SDS011;9441;51.420;7.036;2023-06-10T05:51:16;18.45;;;12.68;;
18623;SDS011;9441;51.420;7.036;2023-06-10T05:52:17;18.52;;;12.95;;
18623;SDS011;9441;51.420;7.036;2023-06-10T05:53:19;20.80;;;12.63;;
18623;SDS011;9441;51.420;7.036;2023-06-10T05:54:21;20.50;;;13.02;;
18623;SDS011;9441;51.420;7.036;2023-06-10T05:55:23;17.42;;;12.57;;
18623;SDS011;9441;51.420;7.036;2023-06-10T05:56:24;18.27;;;12.15;;
18623;SDS011;9441;51.420;7.036;2023-06-10T05:57:32;17.02;;;12.63;;
18623;SDS011;9441;51.420;7.036;2023-06-10T05:58:34;17.55;;;13.45;;
18623;SDS011;9441;51.420;7.036;2023-06-10T05:59:36;15.65;;;12.07;;
18623;SDS011;9441;51.420;7.036;2023-06-10T06:00:38;14.38;;;12.10;;
18623;SDS011;9441;51.420;7.036;2023-06-10T06:01:53;17.17;;;12.45;;
18623;SDS011;9441;51.420;7.036;2023-06-10T06:02:56;17.20;;;12.20;;
18623;SDS011;9441;51.420;7.036;2023-06-10T06:04:00;15.27;;;12.05;;
18623;SDS011;9441;51.420;7.036;2023-06-10T06:05:01;20.15;;;11.80;;
18623;SDS011;9441;51.420;7.036;2023-06-10T06:06:04;18.27;;;11.88;;
18623;SDS011;9441;51.420;7.036;2023-06-10T06:07:06;16.00;;;11.00;;
18623;SDS011;9441;51.420;7.036;2023-06-10T06:08:09;14.20;;;11.63;;
18623;SDS011;9441;51.420;7.036;2023-06-10T06:09:13;17.25;;;11.05;;
18623;SDS011;9441;51.420;7.036;2023-06-10T06:10:20;15.48;;;11.55;;
18623;SDS011;9441;51.420;7.036;2023-06-10T06:11:21;16.30;;;11.50;;
18623;SDS011;9441;51.420;7.036;2023-06-10T06:12:26;16.38;;;12.02;;
18623;SDS011;9441;51.420;7.036;2023-06-10T06:13:27;17.63;;;11.65;;
18623;SDS011;9441;51.420;7.036;2023-06-10T06:14:30;16.15;;;10.93;;
18623;SDS011;9441;51.420;7.036;2023-06-10T06:15:32;14.95;;;10.88;;
18623;SDS011;9441;51.420;7.036;2023-06-10T06:16:34;17.08;;;11.35;;